sensor_id;sensor_type;location;lat;lon;timestamp;pressure;altitude;pressure_sealevel;temperature;humidity
43503;BME280;29098;48.184;16.298;2023-03-25T00:00:09;98612.09;;;13.02;72.87
43503;BME280;29098;48.184;16.298;2023-03-25T00:02:44;98576.72;;;12.96;72.96
43503;BME280;29098;48.184;16.298;2023-03-25T00:05:11;98598.28;;;13.00;73.08
43503;BME280;29098;48.184;16.298;2023-03-25T00:07:41;98607.66;;;12.96;73.13
43503;BME280;29098;48.184;16.298;2023-03-25T00:10:08;98601.84;;;12.87;73.03
43503;BME280;29098;48.184;16.298;2023-03-25T00:12:34;98568.72;;;12.78;72.57
43503;BME280;29098;48.184;16.298;2023-03-25T00:15:00;98589.59;;;12.93;72.43
43503;BME280;29098;48.184;16.298;2023-03-25T00:17:25;98603.66;;;12.86;72.69
43503;BME280;29098;48.184;16.298;2023-03-25T00:19:54;98583.78;;;12.77;72.36
43503;BME280;29098;48.184;16.298;2023-03-25T00:22:21;98606.91;;;12.88;72.91
43503;BME280;29098;48.184;16.298;2023-03-25T00:24:47;98610.16;;;12.91;72.57
43503;BME280;29098;48.184;16.298;2023-03-25T00:27:13;98609.97;;;12.85;71.85
43503;BME280;29098;48.184;16.298;2023-03-25T00:29:42;98608.19;;;12.79;72.25
43503;BME280;29098;48.184;16.298;2023-03-25T00:32:09;98624.00;;;12.86;71.56
43503;BME280;29098;48.184;16.298;2023-03-25T00:34:35;98622.44;;;12.78;71.47
43503;BME280;29098;48.184;16.298;2023-03-25T00:37:09;98625.16;;;12.97;71.50
43503;BME280;29098;48.184;16.298;2023-03-25T00:39:35;98597.59;;;12.79;71.12
43503;BME280;29098;48.184;16.298;2023-03-25T00:42:04;98635.00;;;12.83;70.83
43503;BME280;29098;48.184;16.298;2023-03-25T00:44:30;98616.94;;;12.80;70.96
43503;BME280;29098;48.184;16.298;2023-03-25T00:46:58;98616.63;;;12.95;70.14
43503;BME280;29098;48.184;16.298;2023-03-25T00:49:24;98616.72;;;12.81;70.26
43503;BME280;29098;48.184;16.298;2023-03-25T00:51:53;98617.16;;;12.78;70.90
43503;BME280;29098;48.184;16.298;2023-03-25T00:54:18;98595.03;;;12.66;70.59
43503;BME280;29098;48.184;16.298;2023-03-25T00:56:46;98628.28;;;12.87;69.69
43503;BME280;29098;48.184;16.298;2023-03-25T00:59:13;98591.22;;;12.62;69.15
43503;BME280;29098;48.184;16.298;2023-03-25T01:01:41;98595.22;;;12.71;69.10
43503;BME280;29098;48.184;16.298;2023-03-25T01:04:07;98599.56;;;12.58;68.87
43503;BME280;29098;48.184;16.298;2023-03-25T01:06:42;98626.97;;;12.71;68.97
43503;BME280;29098;48.184;16.298;2023-03-25T01:09:16;98609.00;;;12.80;68.27
43503;BME280;29098;48.184;16.298;2023-03-25T01:11:44;98593.16;;;12.73;68.14
43503;BME280;29098;48.184;16.298;2023-03-25T01:14:14;98592.13;;;12.74;68.08
43503;BME280;29098;48.184;16.298;2023-03-25T01:16:43;98621.94;;;12.63;68.52
43503;BME280;29098;48.184;16.298;2023-03-25T01:19:12;98585.44;;;12.46;68.66
43503;BME280;29098;48.184;16.298;2023-03-25T01:21:38;98598.66;;;12.46;68.53
43503;BME280;29098;48.184;16.298;2023-03-25T01:24:05;98614.38;;;12.66;67.93
43503;BME280;29098;48.184;16.298;2023-03-25T01:26:32;98588.66;;;12.48;68.70
43503;BME280;29098;48.184;16.298;2023-03-25T01:28:58;98600.38;;;12.59;68.24
43503;BME280;29098;48.184;16.298;2023-03-25T01:31:23;98597.53;;;12.60;68.52
43503;BME280;29098;48.184;16.298;2023-03-25T01:33:55;98596.13;;;12.58;68.72
43503;BME280;29098;48.184;16.298;2023-03-25T01:36:22;98585.94;;;12.62;68.42
43503;BME280;29098;48.184;16.298;2023-03-25T01:38:49;98596.34;;;12.56;68.50
43503;BME280;29098;48.184;16.298;2023-03-25T01:41:15;98612.44;;;12.48;68.97
43503;BME280;29098;48.184;16.298;2023-03-25T01:43:41;98598.00;;;12.51;68.97
43503;BME280;29098;48.184;16.298;2023-03-25T01:46:13;98612.00;;;12.51;69.14
43503;BME280;29098;48.184;16.298;2023-03-25T01:48:41;98616.13;;;12.47;69.95
43503;BME280;29098;48.184;16.298;2023-03-25T01:51:16;98599.66;;;12.45;69.42
43503;BME280;29098;48.184;16.298;2023-03-25T01:53:42;98637.66;;;12.51;69.45
43503;BME280;29098;48.184;16.298;2023-03-25T01:56:11;98630.56;;;12.44;69.79
43503;BME280;29098;48.184;16.298;2023-03-25T01:58:38;98654.88;;;12.60;69.32
43503;BME280;29098;48.184;16.298;2023-03-25T02:01:05;98647.41;;;12.50;69.67
43503;BME280;29098;48.184;16.298;2023-03-25T02:03:31;98630.41;;;12.32;70.22
43503;BME280;29098;48.184;16.298;2023-03-25T02:06:06;98638.56;;;12.31;69.89
43503;BME280;29098;48.184;16.298;2023-03-25T02:08:36;98661.69;;;12.42;70.23
43503;BME280;29098;48.184;16.298;2023-03-25T02:11:04;98653.56;;;12.44;70.22
43503;BME280;29098;48.184;16.298;2023-03-25T02:13:31;98661.31;;;12.39;70.28
43503;BME280;29098;48.184;16.298;2023-03-25T02:21:44;98635.22;;;12.49;70.29
43503;BME280;29098;48.184;16.298;2023-03-25T02:27:20;98662.13;;;12.32;71.48
43503;BME280;29098;48.184;16.298;2023-03-25T02:30:34;98618.69;;;12.22;71.06
43503;BME280;29098;48.184;16.298;2023-03-25T02:42:01;98611.28;;;12.37;71.81
43503;BME280;29098;48.184;16.298;2023-03-25T02:47:14;98627.97;;;12.38;71.85
43503;BME280;29098;48.184;16.298;2023-03-25T02:50:03;98611.97;;;12.19;72.62
43503;BME280;29098;48.184;16.298;2023-03-25T02:52:38;98621.66;;;12.39;71.85
43503;BME280;29098;48.184;16.298;2023-03-25T02:55:06;98620.56;;;12.08;73.00
43503;BME280;29098;48.184;16.298;2023-03-25T02:57:39;98628.28;;;12.02;73.44
43503;BME280;29098;48.184;16.298;2023-03-25T03:00:07;98602.78;;;12.28;72.49
43503;BME280;29098;48.184;16.298;2023-03-25T03:02:43;98625.38;;;12.24;73.21
43503;BME280;29098;48.184;16.298;2023-03-25T03:13:50;98615.38;;;12.33;72.18
43503;BME280;29098;48.184;16.298;2023-03-25T03:18:57;98627.03;;;12.12;73.76
43503;BME280;29098;48.184;16.298;2023-03-25T03:21:49;98628.44;;;12.21;73.45
43503;BME280;29098;48.184;16.298;2023-03-25T03:24:24;98629.09;;;11.96;73.73
43503;BME280;29098;48.184;16.298;2023-03-25T03:29:40;98633.78;;;12.08;73.56
43503;BME280;29098;48.184;16.298;2023-03-25T03:32:15;98653.66;;;12.17;73.84
43503;BME280;29098;48.184;16.298;2023-03-25T03:34:58;98650.03;;;12.04;73.81
43503;BME280;29098;48.184;16.298;2023-03-25T03:37:32;98664.47;;;12.09;73.49
43503;BME280;29098;48.184;16.298;2023-03-25T03:40:00;98625.50;;;11.84;74.20
43503;BME280;29098;48.184;16.298;2023-03-25T03:42:33;98663.25;;;12.04;74.33
43503;BME280;29098;48.184;16.298;2023-03-25T03:45:08;98661.19;;;12.00;73.97
43503;BME280;29098;48.184;16.298;2023-03-25T03:47:42;98658.34;;;12.01;74.41
43503;BME280;29098;48.184;16.298;2023-03-25T03:50:15;98656.53;;;11.95;74.02
43503;BME280;29098;48.184;16.298;2023-03-25T03:55:30;98647.22;;;11.86;73.74
43503;BME280;29098;48.184;16.298;2023-03-25T03:58:05;98670.63;;;11.75;74.62
43503;BME280;29098;48.184;16.298;2023-03-25T04:00:46;98677.66;;;11.95;74.36
43503;BME280;29098;48.184;16.298;2023-03-25T04:03:18;98673.84;;;11.91;74.83
43503;BME280;29098;48.184;16.298;2023-03-25T04:05:53;98686.03;;;11.92;74.48
43503;BME280;29098;48.184;16.298;2023-03-25T04:08:56;98679.13;;;11.77;75.06
43503;BME280;29098;48.184;16.298;2023-03-25T04:11:33;98661.88;;;11.75;75.23
43503;BME280;29098;48.184;16.298;2023-03-25T04:14:01;98656.75;;;12.00;74.43
43503;BME280;29098;48.184;16.298;2023-03-25T04:16:27;98673.84;;;11.91;74.58
43503;BME280;29098;48.184;16.298;2023-03-25T04:18:53;98669.53;;;11.97;74.40
43503;BME280;29098;48.184;16.298;2023-03-25T04:21:20;98682.94;;;11.95;74.68
43503;BME280;29098;48.184;16.298;2023-03-25T04:23:46;98691.09;;;12.00;74.24
43503;BME280;29098;48.184;16.298;2023-03-25T04:26:12;98700.06;;;11.72;75.23
43503;BME280;29098;48.184;16.298;2023-03-25T04:28:39;98676.91;;;11.68;75.05
43503;BME280;29098;48.184;16.298;2023-03-25T04:31:13;98691.50;;;11.77;74.87
43503;BME280;29098;48.184;16.298;2023-03-25T04:33:43;98652.75;;;11.64;75.30
43503;BME280;29098;48.184;16.298;2023-03-25T04:36:13;98673.47;;;11.67;75.20
43503;BME280;29098;48.184;16.298;2023-03-25T04:38:39;98665.13;;;11.70;75.18
43503;BME280;29098;48.184;16.298;2023-03-25T04:41:06;98686.25;;;11.70;75.59
43503;BME280;29098;48.184;16.298;2023-03-25T04:43:32;98673.69;;;11.52;76.17
43503;BME280;29098;48.184;16.298;2023-03-25T04:45:58;98692.75;;;11.54;76.19
43503;BME280;29098;48.184;16.298;2023-03-25T04:48:32;98666.38;;;11.34;76.47
43503;BME280;29098;48.184;16.298;2023-03-25T04:50:59;98670.03;;;11.53;76.34
43503;BME280;29098;48.184;16.298;2023-03-25T04:53:26;98703.13;;;11.56;76.27
43503;BME280;29098;48.184;16.298;2023-03-25T04:55:53;98687.09;;;11.44;76.07
43503;BME280;29098;48.184;16.298;2023-03-25T04:58:19;98698.88;;;11.48;75.75
43503;BME280;29098;48.184;16.298;2023-03-25T05:00:48;98681.22;;;11.42;76.00
43503;BME280;29098;48.184;16.298;2023-03-25T05:03:15;98681.38;;;11.60;75.19
43503;BME280;29098;48.184;16.298;2023-03-25T05:05:41;98700.88;;;11.59;74.47
43503;BME280;29098;48.184;16.298;2023-03-25T05:08:06;98698.25;;;11.32;75.77
43503;BME280;29098;48.184;16.298;2023-03-25T05:10:33;98721.00;;;11.54;75.28
43503;BME280;29098;48.184;16.298;2023-03-25T05:13:03;98718.16;;;11.42;74.10
43503;BME280;29098;48.184;16.298;2023-03-25T05:15:33;98728.69;;;11.55;74.50
43503;BME280;29098;48.184;16.298;2023-03-25T05:18:10;98719.97;;;11.61;73.98
43503;BME280;29098;48.184;16.298;2023-03-25T05:20:37;98693.59;;;11.55;73.65
43503;BME280;29098;48.184;16.298;2023-03-25T05:23:07;98712.25;;;11.67;73.66
43503;BME280;29098;48.184;16.298;2023-03-25T05:25:40;98699.25;;;11.45;73.81
43503;BME280;29098;48.184;16.298;2023-03-25T05:28:07;98722.41;;;11.36;74.23
43503;BME280;29098;48.184;16.298;2023-03-25T05:30:37;98720.38;;;11.78;73.27
43503;BME280;29098;48.184;16.298;2023-03-25T05:33:04;98713.06;;;11.60;73.80
43503;BME280;29098;48.184;16.298;2023-03-25T05:35:30;98702.09;;;11.43;73.75
43503;BME280;29098;48.184;16.298;2023-03-25T05:37:56;98704.97;;;11.42;74.10
43503;BME280;29098;48.184;16.298;2023-03-25T05:40:22;98709.84;;;11.51;74.03
43503;BME280;29098;48.184;16.298;2023-03-25T05:42:47;98720.78;;;11.42;73.98
43503;BME280;29098;48.184;16.298;2023-03-25T05:45:15;98709.03;;;11.44;73.99
43503;BME280;29098;48.184;16.298;2023-03-25T05:47:41;98676.53;;;11.44;73.30
43503;BME280;29098;48.184;16.298;2023-03-25T05:50:08;98719.38;;;11.53;73.05
43503;BME280;29098;48.184;16.298;2023-03-25T05:52:35;98706.59;;;11.56;72.37
43503;BME280;29098;48.184;16.298;2023-03-25T05:55:01;98697.81;;;11.62;71.86
43503;BME280;29098;48.184;16.298;2023-03-25T05:57:28;98723.63;;;11.60;72.26
43503;BME280;29098;48.184;16.298;2023-03-25T05:59:53;98727.69;;;11.70;71.61
43503;BME280;29098;48.184;16.298;2023-03-25T06:02:20;98716.72;;;11.66;71.20
43503;BME280;29098;48.184;16.298;2023-03-25T06:04:47;98732.16;;;11.69;71.39
43503;BME280;29098;48.184;16.298;2023-03-25T06:07:14;98717.72;;;11.78;70.68
43503;BME280;29098;48.184;16.298;2023-03-25T06:09:47;98740.69;;;11.64;71.25
43503;BME280;29098;48.184;16.298;2023-03-25T06:12:17;98737.25;;;11.71;70.79
43503;BME280;29098;48.184;16.298;2023-03-25T06:14:44;98741.91;;;11.75;71.06
43503;BME280;29098;48.184;16.298;2023-03-25T06:17:16;98738.44;;;11.82;70.11
43503;BME280;29098;48.184;16.298;2023-03-25T06:19:51;98744.34;;;11.63;70.56
43503;BME280;29098;48.184;16.298;2023-03-25T06:22:17;98757.75;;;11.75;71.15
43503;BME280;29098;48.184;16.298;2023-03-25T06:24:46;98752.25;;;11.43;71.09
43503;BME280;29098;48.184;16.298;2023-03-25T06:27:15;98747.78;;;11.64;70.90
43503;BME280;29098;48.184;16.298;2023-03-25T06:29:43;98774.38;;;11.62;71.22
43503;BME280;29098;48.184;16.298;2023-03-25T06:32:11;98751.06;;;11.53;70.93
43503;BME280;29098;48.184;16.298;2023-03-25T06:34:37;98767.50;;;11.55;71.06
43503;BME280;29098;48.184;16.298;2023-03-25T06:37:06;98774.78;;;11.66;70.93
43503;BME280;29098;48.184;16.298;2023-03-25T06:39:32;98784.56;;;11.72;70.52
43503;BME280;29098;48.184;16.298;2023-03-25T06:41:59;98780.09;;;11.73;70.84
43503;BME280;29098;48.184;16.298;2023-03-25T06:44:25;98739.28;;;11.62;70.88
43503;BME280;29098;48.184;16.298;2023-03-25T06:46:52;98783.72;;;11.85;70.48
43503;BME280;29098;48.184;16.298;2023-03-25T06:49:17;98769.53;;;11.93;70.27
43503;BME280;29098;48.184;16.298;2023-03-25T06:51:43;98730.53;;;11.75;70.30
43503;BME280;29098;48.184;16.298;2023-03-25T06:54:09;98760.97;;;11.98;69.33
43503;BME280;29098;48.184;16.298;2023-03-25T06:56:35;98756.72;;;11.76;70.09
43503;BME280;29098;48.184;16.298;2023-03-25T06:59:01;98763.03;;;11.75;69.46
43503;BME280;29098;48.184;16.298;2023-03-25T07:01:26;98758.34;;;11.64;70.21
43503;BME280;29098;48.184;16.298;2023-03-25T07:03:52;98734.19;;;11.54;69.98
43503;BME280;29098;48.184;16.298;2023-03-25T07:06:20;98754.69;;;11.78;69.65
43503;BME280;29098;48.184;16.298;2023-03-25T07:08:46;98761.38;;;11.88;68.04
43503;BME280;29098;48.184;16.298;2023-03-25T07:11:13;98732.97;;;11.76;68.34
43503;BME280;29098;48.184;16.298;2023-03-25T07:13:39;98747.59;;;11.72;69.10
43503;BME280;29098;48.184;16.298;2023-03-25T07:16:05;98756.13;;;11.81;68.39
43503;BME280;29098;48.184;16.298;2023-03-25T07:18:31;98741.28;;;11.73;67.88
43503;BME280;29098;48.184;16.298;2023-03-25T07:20:57;98758.16;;;11.86;66.76
43503;BME280;29098;48.184;16.298;2023-03-25T07:23:22;98737.63;;;11.81;66.32
43503;BME280;29098;48.184;16.298;2023-03-25T07:25:48;98736.81;;;11.87;66.54
43503;BME280;29098;48.184;16.298;2023-03-25T07:28:14;98734.59;;;11.77;66.31
43503;BME280;29098;48.184;16.298;2023-03-25T07:30:40;98732.97;;;11.76;65.97
43503;BME280;29098;48.184;16.298;2023-03-25T07:33:05;98748.38;;;12.00;65.56
43503;BME280;29098;48.184;16.298;2023-03-25T07:35:31;98698.41;;;11.98;64.23
43503;BME280;29098;48.184;16.298;2023-03-25T07:37:56;98730.50;;;12.09;63.79
43503;BME280;29098;48.184;16.298;2023-03-25T07:40:22;98735.16;;;12.00;64.16
43503;BME280;29098;48.184;16.298;2023-03-25T07:42:47;98710.16;;;12.02;63.57
43503;BME280;29098;48.184;16.298;2023-03-25T07:45:13;98726.41;;;12.13;63.06
43503;BME280;29098;48.184;16.298;2023-03-25T07:47:39;98726.00;;;12.02;62.92
43503;BME280;29098;48.184;16.298;2023-03-25T07:50:05;98706.63;;;12.36;62.53
43503;BME280;29098;48.184;16.298;2023-03-25T07:52:31;98723.19;;;12.11;61.22
43503;BME280;29098;48.184;16.298;2023-03-25T07:54:56;98716.06;;;12.04;61.19
43503;BME280;29098;48.184;16.298;2023-03-25T07:57:22;98720.25;;;12.39;60.35
43503;BME280;29098;48.184;16.298;2023-03-25T07:59:47;98709.56;;;12.14;61.28
43503;BME280;29098;48.184;16.298;2023-03-25T08:02:14;98708.97;;;12.05;60.43
43503;BME280;29098;48.184;16.298;2023-03-25T08:04:40;98711.00;;;12.10;60.92
43503;BME280;29098;48.184;16.298;2023-03-25T08:07:05;98698.38;;;12.12;60.57
43503;BME280;29098;48.184;16.298;2023-03-25T08:09:32;98698.69;;;12.42;59.85
43503;BME280;29098;48.184;16.298;2023-03-25T08:11:58;98689.44;;;12.13;60.07
43503;BME280;29098;48.184;16.298;2023-03-25T08:14:24;98684.53;;;12.23;59.39
43503;BME280;29098;48.184;16.298;2023-03-25T08:16:49;98704.06;;;12.22;60.09
43503;BME280;29098;48.184;16.298;2023-03-25T08:19:18;98715.84;;;12.19;60.69
43503;BME280;29098;48.184;16.298;2023-03-25T08:21:43;98732.72;;;12.18;60.74
43503;BME280;29098;48.184;16.298;2023-03-25T08:24:09;98725.59;;;12.26;59.84
43503;BME280;29098;48.184;16.298;2023-03-25T08:26:35;98728.81;;;12.35;59.74
43503;BME280;29098;48.184;16.298;2023-03-25T08:29:03;98719.06;;;12.28;59.19
43503;BME280;29098;48.184;16.298;2023-03-25T08:31:31;98739.78;;;12.38;58.65
43503;BME280;29098;48.184;16.298;2023-03-25T08:33:58;98748.19;;;12.15;59.14
43503;BME280;29098;48.184;16.298;2023-03-25T08:36:24;98746.75;;;12.19;58.85
43503;BME280;29098;48.184;16.298;2023-03-25T08:38:50;98741.88;;;12.16;58.70
43503;BME280;29098;48.184;16.298;2023-03-25T08:41:16;98749.56;;;12.38;58.49
43503;BME280;29098;48.184;16.298;2023-03-25T08:43:41;98741.78;;;12.50;58.42
43503;BME280;29098;48.184;16.298;2023-03-25T08:46:07;98707.66;;;12.41;58.22
43503;BME280;29098;48.184;16.298;2023-03-25T08:48:33;98732.44;;;12.47;58.30
43503;BME280;29098;48.184;16.298;2023-03-25T08:50:58;98724.50;;;12.47;58.73
43503;BME280;29098;48.184;16.298;2023-03-25T08:53:25;98722.09;;;12.39;58.91
43503;BME280;29098;48.184;16.298;2023-03-25T08:55:55;98756.19;;;12.60;58.92
43503;BME280;29098;48.184;16.298;2023-03-25T08:58:22;98725.56;;;12.32;59.31
43503;BME280;29098;48.184;16.298;2023-03-25T09:00:49;98742.28;;;12.13;59.38
43503;BME280;29098;48.184;16.298;2023-03-25T09:03:17;98739.56;;;12.40;59.14
43503;BME280;29098;48.184;16.298;2023-03-25T09:05:43;98756.84;;;12.42;59.24
43503;BME280;29098;48.184;16.298;2023-03-25T09:08:08;98737.91;;;12.52;58.83
43503;BME280;29098;48.184;16.298;2023-03-25T09:10:34;98738.13;;;12.51;58.71
43503;BME280;29098;48.184;16.298;2023-03-25T09:13:00;98725.03;;;12.63;58.31
43503;BME280;29098;48.184;16.298;2023-03-25T09:15:25;98733.88;;;12.36;58.54
43503;BME280;29098;48.184;16.298;2023-03-25T09:17:51;98749.03;;;12.68;58.03
43503;BME280;29098;48.184;16.298;2023-03-25T09:20:16;98748.25;;;12.60;58.01
43503;BME280;29098;48.184;16.298;2023-03-25T09:22:43;98747.03;;;12.63;57.07
43503;BME280;29098;48.184;16.298;2023-03-25T09:25:09;98732.78;;;12.57;57.48
43503;BME280;29098;48.184;16.298;2023-03-25T09:27:35;98726.22;;;12.73;57.06
43503;BME280;29098;48.184;16.298;2023-03-25T09:30:01;98720.94;;;12.73;56.57
43503;BME280;29098;48.184;16.298;2023-03-25T09:32:27;98712.78;;;12.75;56.75
43503;BME280;29098;48.184;16.298;2023-03-25T09:34:53;98706.72;;;12.68;55.90
43503;BME280;29098;48.184;16.298;2023-03-25T09:37:19;98749.03;;;12.68;55.96
43503;BME280;29098;48.184;16.298;2023-03-25T09:39:44;98740.88;;;12.76;55.32
43503;BME280;29098;48.184;16.298;2023-03-25T09:50:21;98715.31;;;12.56;55.21
43503;BME280;29098;48.184;16.298;2023-03-25T09:53:03;98745.91;;;12.84;55.47
43503;BME280;29098;48.184;16.298;2023-03-25T09:55:34;98723.31;;;12.82;54.88
43503;BME280;29098;48.184;16.298;2023-03-25T09:58:11;98764.75;;;12.95;54.88
43503;BME280;29098;48.184;16.298;2023-03-25T10:00:40;98728.94;;;12.99;54.79
43503;BME280;29098;48.184;16.298;2023-03-25T10:05:56;98734.75;;;13.14;54.31
43503;BME280;29098;48.184;16.298;2023-03-25T10:08:44;98730.72;;;13.05;54.15
43503;BME280;29098;48.184;16.298;2023-03-25T10:14:10;98730.44;;;13.20;53.45
43503;BME280;29098;48.184;16.298;2023-03-25T10:16:58;98731.72;;;13.11;53.88
43503;BME280;29098;48.184;16.298;2023-03-25T10:19:55;98735.34;;;13.17;53.41
43503;BME280;29098;48.184;16.298;2023-03-25T10:22:31;98705.47;;;13.09;53.00
43503;BME280;29098;48.184;16.298;2023-03-25T10:25:04;98719.56;;;13.28;51.80
43503;BME280;29098;48.184;16.298;2023-03-25T10:27:38;98701.59;;;13.12;51.95
43503;BME280;29098;48.184;16.298;2023-03-25T10:30:10;98735.72;;;13.20;52.61
43503;BME280;29098;48.184;16.298;2023-03-25T10:33:07;98732.94;;;13.08;52.30
43503;BME280;29098;48.184;16.298;2023-03-25T10:35:40;98719.53;;;13.03;52.34
43503;BME280;29098;48.184;16.298;2023-03-25T10:38:27;98743.31;;;13.10;51.90
43503;BME280;29098;48.184;16.298;2023-03-25T10:41:02;98743.59;;;12.95;51.27
43503;BME280;29098;48.184;16.298;2023-03-25T10:43:38;98740.56;;;12.98;51.26
43503;BME280;29098;48.184;16.298;2023-03-25T10:46:21;98763.69;;;13.09;51.49
43503;BME280;29098;48.184;16.298;2023-03-25T10:48:49;98783.13;;;12.83;52.02
43503;BME280;29098;48.184;16.298;2023-03-25T10:51:20;98760.56;;;12.80;51.31
43503;BME280;29098;48.184;16.298;2023-03-25T10:53:50;98767.69;;;12.80;51.74
43503;BME280;29098;48.184;16.298;2023-03-25T10:56:50;98758.34;;;12.77;51.45
43503;BME280;29098;48.184;16.298;2023-03-25T10:59:29;98759.91;;;12.92;50.76
43503;BME280;29098;48.184;16.298;2023-03-25T11:01:58;98764.00;;;12.87;51.22
43503;BME280;29098;48.184;16.298;2023-03-25T11:04:34;98780.97;;;13.05;49.79
43503;BME280;29098;48.184;16.298;2023-03-25T11:07:01;98787.34;;;12.97;49.31
43503;BME280;29098;48.184;16.298;2023-03-25T11:09:31;98778.13;;;13.13;49.21
43503;BME280;29098;48.184;16.298;2023-03-25T11:11:59;98781.22;;;13.36;47.66
43503;BME280;29098;48.184;16.298;2023-03-25T11:14:27;98786.31;;;13.37;48.00
43503;BME280;29098;48.184;16.298;2023-03-25T11:16:59;98787.72;;;13.47;47.49
43503;BME280;29098;48.184;16.298;2023-03-25T11:19:40;98776.47;;;13.12;47.57
43503;BME280;29098;48.184;16.298;2023-03-25T11:22:23;98764.06;;;13.13;47.82
43503;BME280;29098;48.184;16.298;2023-03-25T11:24:51;98768.47;;;13.58;46.68
43503;BME280;29098;48.184;16.298;2023-03-25T11:27:27;98779.16;;;13.45;46.70
43503;BME280;29098;48.184;16.298;2023-03-25T11:30:00;98770.53;;;13.56;46.63
43503;BME280;29098;48.184;16.298;2023-03-25T11:32:35;98764.53;;;13.35;46.63
43503;BME280;29098;48.184;16.298;2023-03-25T11:35:06;98775.63;;;13.58;46.62
43503;BME280;29098;48.184;16.298;2023-03-25T11:37:42;98754.09;;;13.73;46.24
43503;BME280;29098;48.184;16.298;2023-03-25T11:40:16;98760.78;;;14.19;45.05
43503;BME280;29098;48.184;16.298;2023-03-25T11:42:43;98747.69;;;14.24;45.56
43503;BME280;29098;48.184;16.298;2023-03-25T11:45:35;98747.97;;;14.72;44.99
43503;BME280;29098;48.184;16.298;2023-03-25T11:48:10;98735.91;;;15.61;42.77
43503;BME280;29098;48.184;16.298;2023-03-25T11:50:36;98734.13;;;15.31;42.67
43503;BME280;29098;48.184;16.298;2023-03-25T11:53:03;98728.28;;;15.53;43.07
43503;BME280;29098;48.184;16.298;2023-03-25T11:55:36;98701.06;;;15.27;42.45
43503;BME280;29098;48.184;16.298;2023-03-25T11:58:06;98719.09;;;15.25;42.48
43503;BME280;29098;48.184;16.298;2023-03-25T12:00:39;98696.59;;;15.28;42.60
43503;BME280;29098;48.184;16.298;2023-03-25T12:05:38;98712.91;;;14.51;43.32
43503;BME280;29098;48.184;16.298;2023-03-25T12:08:12;98729.00;;;14.38;43.51
43503;BME280;29098;48.184;16.298;2023-03-25T12:10:56;98709.41;;;14.20;44.29
43503;BME280;29098;48.184;16.298;2023-03-25T12:16:23;98706.81;;;14.51;44.27
43503;BME280;29098;48.184;16.298;2023-03-25T12:19:03;98670.34;;;14.46;44.33
43503;BME280;29098;48.184;16.298;2023-03-25T12:38:28;98640.22;;;14.71;42.59
43503;BME280;29098;48.184;16.298;2023-03-25T12:41:55;98681.00;;;14.58;43.18
43503;BME280;29098;48.184;16.298;2023-03-25T12:54:56;98635.00;;;14.95;39.53
43503;BME280;29098;48.184;16.298;2023-03-25T13:00:13;98629.38;;;15.27;38.78
43503;BME280;29098;48.184;16.298;2023-03-25T13:05:24;98640.06;;;16.74;38.52
43503;BME280;29098;48.184;16.298;2023-03-25T13:07:57;98632.63;;;18.79;35.45
43503;BME280;29098;48.184;16.298;2023-03-25T13:10:36;98631.78;;;20.66;33.86
43503;BME280;29098;48.184;16.298;2023-03-25T13:13:09;98610.34;;;20.81;30.81
43503;BME280;29098;48.184;16.298;2023-03-25T13:18:09;98591.00;;;21.52;28.21
43503;BME280;29098;48.184;16.298;2023-03-25T13:20:41;98621.13;;;20.92;27.67
43503;BME280;29098;48.184;16.298;2023-03-25T13:23:13;98608.19;;;20.47;27.72
43503;BME280;29098;48.184;16.298;2023-03-25T13:25:58;98596.28;;;19.96;28.15
43503;BME280;29098;48.184;16.298;2023-03-25T13:28:30;98623.59;;;20.04;27.52
43503;BME280;29098;48.184;16.298;2023-03-25T13:31:04;98615.13;;;20.43;27.00
43503;BME280;29098;48.184;16.298;2023-03-25T13:33:37;98612.41;;;19.15;27.89
43503;BME280;29098;48.184;16.298;2023-03-25T13:39:14;98595.41;;;18.34;29.03
43503;BME280;29098;48.184;16.298;2023-03-25T13:41:55;98624.06;;;17.99;29.12
43503;BME280;29098;48.184;16.298;2023-03-25T13:44:29;98597.69;;;17.19;30.37
43503;BME280;29098;48.184;16.298;2023-03-25T13:47:18;98633.28;;;17.69;30.52
43503;BME280;29098;48.184;16.298;2023-03-25T13:49:50;98599.69;;;18.95;28.44
43503;BME280;29098;48.184;16.298;2023-03-25T13:52:18;98584.13;;;20.78;27.25
43503;BME280;29098;48.184;16.298;2023-03-25T13:55:00;98594.28;;;20.61;26.10
43503;BME280;29098;48.184;16.298;2023-03-25T14:09:20;98604.50;;;18.66;28.32
43503;BME280;29098;48.184;16.298;2023-03-25T14:12:08;98590.50;;;18.03;29.89
43503;BME280;29098;48.184;16.298;2023-03-25T14:14:43;98596.31;;;18.45;28.93
43503;BME280;29098;48.184;16.298;2023-03-25T14:17:15;98597.84;;;17.51;30.05
43503;BME280;29098;48.184;16.298;2023-03-25T14:19:49;98613.03;;;17.11;31.21
43503;BME280;29098;48.184;16.298;2023-03-25T14:22:39;98615.16;;;18.66;29.13
43503;BME280;29098;48.184;16.298;2023-03-25T14:25:20;98585.03;;;18.65;28.59
43503;BME280;29098;48.184;16.298;2023-03-25T14:27:51;98616.78;;;18.99;28.21
43503;BME280;29098;48.184;16.298;2023-03-25T14:30:27;98620.09;;;17.23;30.29
43503;BME280;29098;48.184;16.298;2023-03-25T14:32:54;98638.09;;;16.52;31.25
43503;BME280;29098;48.184;16.298;2023-03-25T14:38:17;98588.16;;;16.13;31.61
43503;BME280;29098;48.184;16.298;2023-03-25T14:40:49;98592.06;;;15.70;33.22
43503;BME280;29098;48.184;16.298;2023-03-25T14:49:08;98613.38;;;16.11;32.87
43503;BME280;29098;48.184;16.298;2023-03-25T14:54:13;98564.75;;;15.33;34.08
43503;BME280;29098;48.184;16.298;2023-03-25T14:56:50;98569.25;;;15.45;34.18
43503;BME280;29098;48.184;16.298;2023-03-25T14:59:21;98565.78;;;15.20;34.72
43503;BME280;29098;48.184;16.298;2023-03-25T15:01:48;98571.09;;;15.09;35.22
43503;BME280;29098;48.184;16.298;2023-03-25T15:06:43;98588.06;;;15.07;35.96